Greifswald — 3FEC8 — position and weather

sailwx.info

Track history (hours):
 
Tides and Currents Weather Stations Pressure Air Temp Water Temp Dewpoint Dewpoint Depression Visibility Wind Speed Wind Dir Waves Ship Positions

Greifswald

Last reported at 2014-Nov-26 10:19 UTC. Time now 2014-Nov-26 12:48 UTC.
Position N 44°06' E 033°54'.

Length 191 m; draft 6.5 m.

Type: Ship. MMSI: 370492000.

Date/timePositionNaut miles runAvg speedWind from/ knotsBaromVisibWave heightAir tempDewpointWater temp
2014-Nov-26 10:19N 44°06' E 033°54'1112.9
2014-Nov-26 09:30N 44°02' E 034°08'1312.4
2014-Nov-26 08:28N 43°57' E 034°24'  
2014-Nov-19 21:09N 46°21' E 030°39'0 0.0
2014-Nov-19 20:33N 46°21' E 030°39'136 4.8
2014-Nov-18 16:10N 44°44' E 032°56'812.7
2014-Nov-18 15:31N 44°38' E 033°04'5213.2
2014-Nov-18 11:33N 44°05' E 034°00'1313.4
2014-Nov-18 10:33N 43°59' E 034°17'  
Track history (hours):
 
Tides and Currents Weather Stations Pressure Air Temp Water Temp Dewpoint Dewpoint Depression Visibility Wind Speed Wind Dir Waves Ship Positions

Greifswald

Last reported at 2014-Nov-26 10:19 UTC. Time now 2014-Nov-26 12:48 UTC.
Position N 44°06' E 033°54'.

Length 191 m; draft 6.5 m.

Type: Ship. MMSI: 370492000.

Date/timePositionNaut miles runAvg speedWind from/ knotsBaromVisibWave heightAir tempDewpointWater temp
2014-Nov-26 10:19N 44°06' E 033°54'1112.9
2014-Nov-26 09:30N 44°02' E 034°08'1312.4
2014-Nov-26 08:28N 43°57' E 034°24'  
2014-Nov-19 21:09N 46°21' E 030°39'0 0.0
2014-Nov-19 20:33N 46°21' E 030°39'136 4.8
2014-Nov-18 16:10N 44°44' E 032°56'812.7
2014-Nov-18 15:31N 44°38' E 033°04'5213.2
2014-Nov-18 11:33N 44°05' E 034°00'1313.4
2014-Nov-18 10:33N 43°59' E 034°17'  

Dump ship's entire track history